Time;durP1;ratioP1;P1;durP2;ratioP2;P2;SDS_P1;SDS_P2;PMS_P1;PMS_P2;Temp;Humidity;BMP_temperature;BMP_pressure;BME280_temperature;BME280_humidity;BME280_pressure;Samples;Min_cycle;Max_cycle;Signal;HPM_P1;HPM_P2
2021/03/31 00:00:49;;;;;;;20.92;10.30;;;7.60;99.90;;;;;;5048248;28;20060;-78
2021/03/31 00:03:20;;;;;;;22.50;9.98;;;7.60;99.90;;;;;;5061608;28;20033;-77
2021/03/31 00:05:46;;;;;;;23.98;10.55;;;7.70;99.90;;;;;;5031433;28;20029;-77
2021/03/31 00:08:12;;;;;;;20.77;10.88;;;7.80;99.90;;;;;;5046591;28;20516;-78
2021/03/31 00:10:47;;;;;;;23.23;10.77;;;7.90;99.90;;;;;;5046544;28;20036;-78
2021/03/31 00:13:13;;;;;;;23.40;10.80;;;8.10;99.90;;;;;;5030087;28;20056;-78
2021/03/31 00:15:40;;;;;;;23.50;10.68;;;8.10;99.90;;;;;;5029893;28;20044;-77
2021/03/31 00:18:07;;;;;;;24.80;12.50;;;8.30;99.90;;;;;;5047889;28;20052;-77
2021/03/31 00:20:33;;;;;;;27.88;11.85;;;8.40;99.90;;;;;;5046472;28;20069;-77
2021/03/31 00:23:01;;;;;;;25.25;11.70;;;8.30;99.90;;;;;;5046575;28;20444;-78
2021/03/31 00:25:27;;;;;;;21.70;10.80;;;8.10;99.90;;;;;;5065014;28;20068;-78
2021/03/31 00:27:53;;;;;;;22.20;10.50;;;7.90;99.90;;;;;;5082848;28;20037;-77
2021/03/31 00:30:18;;;;;;;23.40;10.77;;;7.90;99.90;;;;;;5066335;28;20064;-78
2021/03/31 00:32:44;;;;;;;22.50;10.38;;;7.80;99.90;;;;;;5066067;28;20036;-78
2021/03/31 00:35:10;;;;;;;21.25;10.60;;;7.70;99.90;;;;;;5067256;28;20025;-77
2021/03/31 00:37:36;;;;;;;21.98;11.23;;;7.70;99.90;;;;;;5066152;28;20020;-77
2021/03/31 00:40:07;;;;;;;21.75;10.10;;;7.60;99.90;;;;;;5081750;28;20035;-78
2021/03/31 00:42:33;;;;;;;21.48;9.95;;;7.60;99.90;;;;;;5065870;28;20029;-78
2021/03/31 00:44:59;;;;;;;23.33;10.30;;;7.50;99.90;;;;;;5067081;28;20040;-78
2021/03/31 00:47:24;;;;;;;22.83;10.50;;;7.50;99.90;;;;;;5066002;28;20029;-76
2021/03/31 00:49:51;;;;;;;20.35;9.45;;;7.40;99.90;;;;;;5065879;28;20485;-77
2021/03/31 00:52:17;;;;;;;20.88;10.32;;;7.30;99.90;;;;;;5055170;28;20017;-77
2021/03/31 00:54:44;;;;;;;25.75;10.75;;;7.30;99.90;;;;;;5065582;28;20031;-77
2021/03/31 00:57:10;;;;;;;23.33;10.40;;;7.20;99.90;;;;;;5082344;28;20085;-78
2021/03/31 00:59:36;;;;;;;26.48;11.38;;;7.20;99.90;;;;;;5065639;28;20135;-78
2021/03/31 01:02:02;;;;;;;20.80;9.95;;;7.10;99.90;;;;;;5082431;28;20029;-77
2021/03/31 01:04:28;;;;;;;19.55;10.40;;;7.00;99.90;;;;;;5059051;28;20048;-77
2021/03/31 01:06:53;;;;;;;25.25;10.27;;;7.00;99.90;;;;;;5046705;28;20045;-77
2021/03/31 01:09:19;;;;;;;21.10;10.60;;;7.00;99.90;;;;;;5046996;28;20056;-77
2021/03/31 01:12:07;;;;;;;20.95;10.25;;;6.80;99.90;;;;;;5045673;28;20045;-77
2021/03/31 01:14:51;;;;;;;21.17;10.07;;;6.80;99.90;;;;;;5045325;28;20034;-77
2021/03/31 01:17:57;;;;;;;19.27;9.73;;;6.80;99.90;;;;;;5045654;28;20029;-79
2021/03/31 01:20:32;;;;;;;20.13;9.30;;;6.80;99.90;;;;;;5016261;28;20059;-77
2021/03/31 01:23:23;;;;;;;19.88;9.52;;;6.60;99.90;;;;;;5060923;28;20071;-77
2021/03/31 01:26:03;;;;;;;23.67;9.65;;;6.60;99.90;;;;;;5066425;28;20043;-77
2021/03/31 01:28:49;;;;;;;22.58;9.90;;;6.50;99.90;;;;;;5048481;28;20025;-78
2021/03/31 01:31:27;;;;;;;18.52;9.35;;;6.40;99.90;;;;;;5066599;28;20461;-77
2021/03/31 01:33:53;;;;;;;21.13;9.52;;;6.40;99.90;;;;;;5065106;28;20040;-77
2021/03/31 01:36:20;;;;;;;24.38;10.65;;;6.50;99.90;;;;;;5066159;28;20029;-77
2021/03/31 01:38:51;;;;;;;19.05;9.13;;;6.40;99.90;;;;;;5065132;28;20036;-77
2021/03/31 01:41:19;;;;;;;22.13;10.40;;;6.40;99.90;;;;;;5065213;28;20057;-77
2021/03/31 01:43:50;;;;;;;19.40;9.88;;;6.30;99.90;;;;;;5066054;28;20382;-77
2021/03/31 01:46:17;;;;;;;22.15;10.77;;;6.30;99.90;;;;;;5064914;28;20029;-77
2021/03/31 01:48:43;;;;;;;18.63;8.70;;;6.20;99.90;;;;;;5066186;28;20480;-78
2021/03/31 01:51:10;;;;;;;22.00;10.60;;;6.20;99.90;;;;;;5045101;28;20023;-77
2021/03/31 01:53:38;;;;;;;20.25;9.27;;;6.20;99.90;;;;;;5046197;28;20261;-77
2021/03/31 01:56:05;;;;;;;21.05;9.50;;;6.20;99.90;;;;;;5044703;28;20466;-77
2021/03/31 01:58:34;;;;;;;21.13;9.35;;;6.20;99.90;;;;;;5045915;28;20037;-77
2021/03/31 02:01:00;;;;;;;21.95;10.43;;;6.10;99.90;;;;;;5044737;28;20440;-77
2021/03/31 02:03:29;;;;;;;18.75;8.77;;;6.10;99.90;;;;;;5044672;28;20097;-77
2021/03/31 02:05:57;;;;;;;23.92;10.45;;;6.00;99.90;;;;;;5045288;28;20037;-77
2021/03/31 02:08:23;;;;;;;23.42;9.52;;;6.00;99.90;;;;;;5061033;28;20049;-77
2021/03/31 02:10:50;;;;;;;22.75;11.07;;;5.90;99.90;;;;;;5044652;28;20033;-77
2021/03/31 02:13:17;;;;;;;22.65;9.55;;;5.90;99.90;;;;;;5060992;28;20033;-77
2021/03/31 02:15:45;;;;;;;18.17;9.23;;;5.80;99.90;;;;;;5060902;28;20051;-77
2021/03/31 02:18:13;;;;;;;21.63;9.48;;;5.90;99.90;;;;;;5044413;28;20037;-77
2021/03/31 02:20:39;;;;;;;20.40;9.80;;;5.80;99.90;;;;;;5045533;28;20030;-77
2021/03/31 02:23:05;;;;;;;20.13;9.13;;;5.90;99.90;;;;;;5044333;28;20052;-77
2021/03/31 02:25:32;;;;;;;22.58;10.32;;;5.70;99.90;;;;;;5060655;28;20065;-77
2021/03/31 02:27:58;;;;;;;19.42;8.93;;;5.80;99.90;;;;;;5044303;28;20033;-77
2021/03/31 02:30:26;;;;;;;19.80;9.25;;;5.60;99.90;;;;;;5045286;28;20183;-77
2021/03/31 02:32:55;;;;;;;25.95;10.10;;;5.70;99.90;;;;;;5047670;28;20028;-77
2021/03/31 02:35:23;;;;;;;25.20;10.13;;;5.60;99.90;;;;;;5065099;28;20048;-77
2021/03/31 02:37:59;;;;;;;20.38;9.35;;;5.70;99.90;;;;;;5065406;28;20389;-77
2021/03/31 02:40:27;;;;;;;19.85;9.38;;;5.50;99.90;;;;;;5065468;28;20075;-77
2021/03/31 02:42:54;;;;;;;19.75;10.15;;;5.60;99.90;;;;;;5065401;28;20036;-77
2021/03/31 02:45:22;;;;;;;20.20;9.95;;;5.60;99.90;;;;;;5064967;28;20036;-77
2021/03/31 02:47:49;;;;;;;19.55;9.40;;;5.60;99.90;;;;;;5064062;28;20539;-77
2021/03/31 02:50:18;;;;;;;19.98;9.38;;;5.40;99.90;;;;;;5065157;28;20029;-77
2021/03/31 02:52:46;;;;;;;18.98;9.90;;;5.60;99.90;;;;;;5040776;28;20061;-77
2021/03/31 02:55:13;;;;;;;22.27;9.55;;;5.50;99.90;;;;;;5023999;28;20496;-77
2021/03/31 02:57:41;;;;;;;22.65;8.93;;;5.40;99.90;;;;;;5024243;28;20107;-77
2021/03/31 03:00:09;;;;;;;23.73;10.45;;;5.40;99.90;;;;;;5023987;28;20049;-77
2021/03/31 03:02:40;;;;;;;20.48;8.80;;;5.40;99.90;;;;;;5024490;28;20080;-77
2021/03/31 03:05:07;;;;;;;19.67;9.75;;;5.40;99.90;;;;;;5056055;28;20129;-78
2021/03/31 03:07:37;;;;;;;19.05;8.73;;;5.40;99.90;;;;;;5047704;28;20143;-77
2021/03/31 03:10:05;;;;;;;17.92;9.18;;;5.30;99.90;;;;;;5047948;28;20048;-77
2021/03/31 03:12:32;;;;;;;19.15;8.52;;;5.30;99.90;;;;;;5048980;28;20036;-77
2021/03/31 03:14:58;;;;;;;18.35;8.88;;;5.30;99.90;;;;;;5048795;28;20030;-78
2021/03/31 03:17:24;;;;;;;21.70;9.63;;;5.30;99.90;;;;;;5049074;28;20045;-78
2021/03/31 03:19:50;;;;;;;20.00;9.73;;;5.30;99.90;;;;;;5049016;28;20116;-77
2021/03/31 03:22:17;;;;;;;20.40;8.80;;;5.20;99.90;;;;;;5048864;28;20052;-77
2021/03/31 03:24:44;;;;;;;19.92;9.90;;;5.20;99.90;;;;;;5047487;28;20045;-77
2021/03/31 03:27:15;;;;;;;22.45;8.88;;;5.10;99.90;;;;;;5031009;28;20116;-77
2021/03/31 03:29:51;;;;;;;19.63;9.85;;;5.20;99.90;;;;;;5064139;28;20552;-77
2021/03/31 03:32:18;;;;;;;20.30;8.70;;;5.20;99.90;;;;;;5047536;28;20065;-77
2021/03/31 03:34:49;;;;;;;19.02;9.00;;;5.20;99.90;;;;;;5048643;28;20113;-77
2021/03/31 03:37:17;;;;;;;18.48;8.27;;;5.10;99.90;;;;;;5047197;28;20037;-77
2021/03/31 03:39:43;;;;;;;18.95;9.90;;;5.10;99.90;;;;;;5048955;28;20025;-77
2021/03/31 03:42:09;;;;;;;17.05;8.20;;;5.10;99.90;;;;;;5047333;28;20061;-77
2021/03/31 03:44:36;;;;;;;22.23;9.00;;;5.10;99.90;;;;;;5063844;28;20036;-77
2021/03/31 03:47:02;;;;;;;18.67;9.23;;;5.00;99.90;;;;;;5048251;28;20496;-77
2021/03/31 03:49:28;;;;;;;17.90;8.23;;;5.10;99.90;;;;;;5047331;28;20038;-77
2021/03/31 03:51:54;;;;;;;17.90;8.38;;;5.00;99.90;;;;;;5063847;28;20025;-77
2021/03/31 03:54:20;;;;;;;19.35;9.55;;;5.00;99.90;;;;;;5048252;28;20537;-77
2021/03/31 03:56:49;;;;;;;21.58;9.32;;;4.90;99.90;;;;;;5047031;28;20029;-77
2021/03/31 03:59:27;;;;;;;20.83;9.63;;;4.90;99.90;;;;;;5047064;28;20042;-77
2021/03/31 04:01:53;;;;;;;23.02;9.57;;;4.90;99.90;;;;;;5046927;28;20026;-78
2021/03/31 04:04:19;;;;;;;22.27;9.43;;;4.90;99.90;;;;;;5047904;28;20497;-77
2021/03/31 04:06:45;;;;;;;19.58;8.75;;;4.90;99.90;;;;;;5046498;28;20029;-77
2021/03/31 04:09:11;;;;;;;18.90;9.80;;;4.90;99.90;;;;;;5046847;28;20076;-77
2021/03/31 04:11:39;;;;;;;23.75;10.00;;;4.90;99.90;;;;;;5047776;28;20041;-77
2021/03/31 04:14:05;;;;;;;22.38;10.30;;;4.90;99.90;;;;;;5046313;28;20044;-77
2021/03/31 04:16:32;;;;;;;20.13;10.10;;;4.90;99.90;;;;;;5046185;28;20052;-77
2021/03/31 04:19:03;;;;;;;18.02;8.98;;;4.80;99.90;;;;;;5046668;28;20037;-77
2021/03/31 04:21:32;;;;;;;20.65;9.98;;;4.80;99.90;;;;;;5046443;28;20037;-77
2021/03/31 04:23:58;;;;;;;19.58;9.35;;;4.80;99.90;;;;;;5029976;28;20056;-77
2021/03/31 04:26:26;;;;;;;19.88;9.30;;;4.70;99.90;;;;;;5046183;28;20033;-77
2021/03/31 04:28:53;;;;;;;23.08;10.07;;;4.70;99.90;;;;;;5046037;28;20037;-77
2021/03/31 04:31:23;;;;;;;18.38;9.00;;;4.70;99.90;;;;;;5046000;28;20040;-77
2021/03/31 04:33:50;;;;;;;21.60;8.90;;;4.60;99.90;;;;;;5046334;28;20036;-78
2021/03/31 04:36:16;;;;;;;19.15;8.95;;;4.60;99.90;;;;;;5047243;28;20037;-78
2021/03/31 04:38:46;;;;;;;16.90;8.57;;;4.60;99.90;;;;;;5047661;28;20298;-77
2021/03/31 04:41:11;;;;;;;18.60;9.45;;;4.50;99.90;;;;;;5046173;28;20089;-78
2021/03/31 04:43:37;;;;;;;21.45;9.60;;;4.50;99.90;;;;;;5047339;28;20045;-77
2021/03/31 04:46:05;;;;;;;16.80;8.90;;;4.60;99.90;;;;;;5029334;28;20100;-77
2021/03/31 04:48:31;;;;;;;18.50;9.15;;;4.50;99.90;;;;;;5047072;28;20100;-78
2021/03/31 04:50:57;;;;;;;19.92;9.88;;;4.60;99.90;;;;;;5047064;28;20030;-77
2021/03/31 04:53:23;;;;;;;21.80;9.95;;;4.60;99.90;;;;;;5045697;28;20401;-78
2021/03/31 04:55:49;;;;;;;18.63;9.50;;;4.60;99.90;;;;;;5045670;28;20060;-78
2021/03/31 04:58:15;;;;;;;19.05;9.63;;;4.50;99.90;;;;;;5029172;28;20067;-77
2021/03/31 05:00:41;;;;;;;19.42;9.98;;;4.50;99.90;;;;;;5046003;28;20191;-78
2021/03/31 05:03:07;;;;;;;22.42;9.82;;;4.50;99.90;;;;;;5045421;28;20036;-77
2021/03/31 05:09:21;;;;;;;20.17;8.27;;;4.40;99.90;;;;;;4935444;29;20059;-77
2021/03/31 05:11:46;;;;;;;20.38;9.43;;;4.40;99.90;;;;;;4946687;29;20036;-77
2021/03/31 05:14:12;;;;;;;21.77;10.43;;;4.40;99.90;;;;;;4946703;29;20205;-78
2021/03/31 05:16:37;;;;;;;19.42;9.40;;;4.50;99.90;;;;;;4930710;29;20075;-77
2021/03/31 05:19:03;;;;;;;19.60;9.23;;;4.50;99.90;;;;;;4930328;29;20047;-77
2021/03/31 05:21:29;;;;;;;18.83;9.43;;;4.50;99.90;;;;;;4932062;29;20032;-77
2021/03/31 05:23:54;;;;;;;21.23;9.23;;;4.50;99.90;;;;;;4945988;29;20043;-79
2021/03/31 05:26:20;;;;;;;22.27;10.95;;;4.50;99.90;;;;;;4934629;29;20044;-79
2021/03/31 05:28:45;;;;;;;21.17;10.68;;;4.50;99.90;;;;;;4946982;29;20038;-78
2021/03/31 05:31:11;;;;;;;19.83;9.88;;;4.50;99.90;;;;;;4933171;29;20027;-78
2021/03/31 05:33:37;;;;;;;21.70;10.63;;;4.50;99.90;;;;;;4927458;29;20504;-78
2021/03/31 05:36:03;;;;;;;25.05;11.02;;;4.50;99.90;;;;;;4929612;29;20043;-78
2021/03/31 05:38:28;;;;;;;21.83;10.60;;;4.50;99.90;;;;;;4945531;29;20562;-78
2021/03/31 05:40:59;;;;;;;24.50;10.88;;;4.50;99.90;;;;;;4929846;29;20039;-79
2021/03/31 05:43:24;;;;;;;22.08;9.75;;;4.50;99.90;;;;;;4928841;29;20114;-78
2021/03/31 05:45:53;;;;;;;21.83;10.20;;;4.50;99.90;;;;;;5019811;28;20192;-78
2021/03/31 05:48:19;;;;;;;21.67;10.45;;;4.50;99.90;;;;;;5044842;28;20083;-78
2021/03/31 05:50:45;;;;;;;24.98;11.52;;;4.60;99.90;;;;;;5044056;28;20124;-78
2021/03/31 05:53:10;;;;;;;20.55;11.40;;;4.70;99.90;;;;;;5045127;28;20088;-79
2021/03/31 05:55:36;;;;;;;20.77;10.35;;;4.70;99.90;;;;;;5043694;28;20458;-79
2021/03/31 05:58:03;;;;;;;24.80;11.13;;;4.80;99.90;;;;;;5027459;28;20049;-78
2021/03/31 06:00:29;;;;;;;22.83;10.43;;;4.80;99.90;;;;;;5043798;28;20402;-78
2021/03/31 06:02:55;;;;;;;22.40;11.70;;;4.90;99.90;;;;;;5043599;28;20041;-78
2021/03/31 06:05:41;;;;;;;23.38;11.48;;;4.90;99.90;;;;;;5043274;28;20091;-78
2021/03/31 06:08:07;;;;;;;27.02;12.30;;;5.10;99.90;;;;;;4985933;28;20104;-78
2021/03/31 06:10:36;;;;;;;21.40;10.80;;;5.20;99.90;;;;;;4986661;28;20466;-78
2021/03/31 06:13:05;;;;;;;22.00;11.27;;;5.20;99.90;;;;;;4987089;28;20045;-79
2021/03/31 06:15:44;;;;;;;22.37;10.80;;;5.20;99.90;;;;;;4987104;28;20037;-78
2021/03/31 06:18:14;;;;;;;20.40;11.13;;;5.40;99.90;;;;;;4970877;28;20030;-78
2021/03/31 06:20:43;;;;;;;24.02;11.45;;;5.50;99.90;;;;;;4970829;28;20045;-78
2021/03/31 06:28:27;;;;;;;25.55;11.93;;;6.00;99.90;;;;;;5002927;28;20026;-78
2021/03/31 06:31:08;;;;;;;23.20;12.32;;;6.10;99.90;;;;;;4987010;28;20089;-78
2021/03/31 06:33:36;;;;;;;27.48;12.18;;;6.40;99.90;;;;;;4986878;28;20463;-78
2021/03/31 06:36:03;;;;;;;22.30;11.23;;;6.60;99.90;;;;;;5003032;28;20526;-79
2021/03/31 06:38:30;;;;;;;21.95;11.93;;;6.80;99.90;;;;;;4989050;28;20053;-78
2021/03/31 06:41:00;;;;;;;22.30;12.23;;;7.00;99.90;;;;;;4974639;28;20034;-78
2021/03/31 06:43:39;;;;;;;22.83;11.97;;;7.00;99.90;;;;;;4974510;28;20035;-78
2021/03/31 06:46:16;;;;;;;21.25;10.35;;;7.20;99.90;;;;;;5022982;28;20079;-79
2021/03/31 06:48:47;;;;;;;18.95;9.93;;;7.40;99.90;;;;;;5048950;28;20120;-78
2021/03/31 06:51:24;;;;;;;18.80;10.30;;;7.60;99.90;;;;;;5039626;28;20397;-79
2021/03/31 06:53:49;;;;;;;23.30;10.52;;;7.80;99.90;;;;;;5027756;28;20044;-79
2021/03/31 06:56:15;;;;;;;19.63;9.88;;;8.00;99.90;;;;;;5027567;28;20113;-78
2021/03/31 06:58:41;;;;;;;16.63;9.55;;;8.20;99.90;;;;;;5028975;28;20030;-78
2021/03/31 07:01:34;;;;;;;16.13;9.15;;;8.40;99.90;;;;;;5027841;28;20052;-78
2021/03/31 07:04:02;;;;;;;15.63;8.73;;;8.60;99.90;;;;;;5029638;28;20056;-78
2021/03/31 07:06:28;;;;;;;17.30;8.38;;;8.90;99.90;;;;;;5046897;28;20033;-79
2021/03/31 07:08:54;;;;;;;16.15;7.85;;;9.10;99.90;;;;;;5047028;28;20067;-79
2021/03/31 07:11:41;;;;;;;12.13;6.93;;;9.20;99.90;;;;;;5030638;28;20053;-78
2021/03/31 07:14:09;;;;;;;14.82;7.50;;;9.40;99.90;;;;;;5048141;28;20041;-79
2021/03/31 07:16:35;;;;;;;12.82;7.63;;;9.70;99.90;;;;;;5046936;28;20057;-79
2021/03/31 07:19:03;;;;;;;13.95;7.93;;;10.00;99.90;;;;;;5046890;28;20104;-77
2021/03/31 07:21:30;;;;;;;12.18;8.23;;;10.20;99.90;;;;;;5048022;28;20112;-79
2021/03/31 07:23:57;;;;;;;12.15;7.22;;;10.40;99.90;;;;;;5046611;28;20113;-78
2021/03/31 07:26:23;;;;;;;12.60;7.55;;;10.70;99.90;;;;;;5030399;28;20029;-79
2021/03/31 07:28:50;;;;;;;13.55;7.85;;;10.90;99.90;;;;;;5046796;28;20033;-79
2021/03/31 07:31:22;;;;;;;12.98;7.63;;;11.00;99.90;;;;;;5046776;28;20084;-79
2021/03/31 07:34:11;;;;;;;12.07;7.82;;;11.30;99.90;;;;;;5046528;28;20026;-79
2021/03/31 07:36:42;;;;;;;11.88;6.72;;;11.40;99.90;;;;;;5046217;28;20029;-79
2021/03/31 07:39:08;;;;;;;11.93;6.63;;;11.60;99.90;;;;;;5046626;28;20036;-78
2021/03/31 07:41:37;;;;;;;11.60;6.72;;;11.80;99.90;;;;;;5046557;28;20033;-79
2021/03/31 07:44:05;;;;;;;12.65;6.72;;;12.00;99.90;;;;;;5046208;28;20037;-79
2021/03/31 07:46:36;;;;;;;10.63;6.88;;;12.10;99.90;;;;;;5046704;28;20108;-79
2021/03/31 07:49:02;;;;;;;11.55;7.13;;;12.40;99.90;;;;;;5045878;28;20034;-79
2021/03/31 07:51:30;;;;;;;12.65;6.78;;;12.50;99.90;;;;;;5047268;28;20029;-79
2021/03/31 07:53:58;;;;;;;10.48;6.35;;;12.60;99.90;;;;;;5046200;28;20033;-80
2021/03/31 07:56:35;;;;;;;14.63;7.82;;;12.70;99.90;;;;;;5029817;28;20025;-79
2021/03/31 07:59:05;;;;;;;10.65;5.95;;;12.90;99.90;;;;;;5047552;28;20071;-79
2021/03/31 08:01:40;;;;;;;10.68;5.20;;;13.10;99.90;;;;;;5047501;28;20142;-79
2021/03/31 08:04:07;;;;;;;8.70;4.97;;;13.20;99.90;;;;;;5046005;28;20041;-79
2021/03/31 08:06:36;;;;;;;12.52;6.05;;;13.30;99.90;;;;;;5057833;22;20056;-79
2021/03/31 08:09:05;;;;;;;11.13;5.30;;;13.50;99.90;;;;;;5066769;28;20115;-79
2021/03/31 08:11:41;;;;;;;13.52;5.88;;;13.60;99.90;;;;;;5066337;28;20602;-80
2021/03/31 08:14:09;;;;;;;12.32;6.70;;;13.80;99.90;;;;;;5083562;28;20053;-79
2021/03/31 08:16:43;;;;;;;10.32;4.72;;;14.00;99.90;;;;;;5066355;28;20079;-79
2021/03/31 08:19:13;;;;;;;8.68;5.50;;;14.10;99.90;;;;;;5066487;28;20051;-80
2021/03/31 08:21:40;;;;;;;13.77;5.70;;;14.20;99.90;;;;;;5049293;28;20052;-80
2021/03/31 08:24:06;;;;;;;10.63;5.80;;;14.40;99.90;;;;;;5065976;28;20048;-79
2021/03/31 08:26:42;;;;;;;13.50;6.15;;;14.60;99.90;;;;;;5065952;28;20053;-80
2021/03/31 08:29:29;;;;;;;8.65;5.28;;;14.70;99.90;;;;;;5066164;28;20405;-79
2021/03/31 08:32:04;;;;;;;10.88;5.53;;;14.90;99.90;;;;;;5066236;28;20122;-80
2021/03/31 08:34:31;;;;;;;10.48;5.75;;;15.20;99.90;;;;;;5066328;28;20053;-80
2021/03/31 08:36:59;;;;;;;8.85;5.72;;;15.20;99.90;;;;;;5065723;28;20086;-80
2021/03/31 08:39:25;;;;;;;9.23;5.93;;;15.30;99.90;;;;;;5066913;28;20032;-79
2021/03/31 08:41:55;;;;;;;10.13;5.72;;;15.40;99.90;;;;;;5065505;28;20083;-79
2021/03/31 08:44:34;;;;;;;9.13;5.72;;;15.60;99.90;;;;;;5066996;28;20384;-79
2021/03/31 08:47:12;;;;;;;6.65;4.30;;;15.70;99.90;;;;;;5091471;22;20064;-80
2021/03/31 08:49:39;;;;;;;10.43;5.03;;;15.90;99.90;;;;;;5082225;28;20033;-80
2021/03/31 08:52:13;;;;;;;7.05;4.22;;;16.00;99.90;;;;;;5081934;28;20126;-80
2021/03/31 08:54:46;;;;;;;8.98;4.93;;;16.20;99.90;;;;;;5081844;28;20052;-80
2021/03/31 08:57:14;;;;;;;6.40;4.30;;;16.40;99.90;;;;;;5066647;28;20491;-80
2021/03/31 08:59:43;;;;;;;7.13;4.95;;;16.60;99.90;;;;;;5082059;28;20033;-80
2021/03/31 09:02:09;;;;;;;9.15;5.53;;;16.60;99.90;;;;;;5080742;28;20040;-80
2021/03/31 09:04:35;;;;;;;8.68;6.13;;;16.80;99.90;;;;;;5081704;28;20040;-80
2021/03/31 09:07:03;;;;;;;8.00;5.28;;;16.90;99.90;;;;;;5064859;28;20032;-80
2021/03/31 09:09:34;;;;;;;8.43;5.78;;;16.90;99.90;;;;;;5066258;28;20033;-80
2021/03/31 09:12:05;;;;;;;9.90;5.00;;;17.10;99.90;;;;;;5064862;28;20108;-80
2021/03/31 09:14:32;;;;;;;11.10;5.28;;;17.20;99.90;;;;;;5047981;28;20067;-80
2021/03/31 09:17:03;;;;;;;9.88;5.47;;;17.30;99.90;;;;;;5066106;28;20041;-80
2021/03/31 09:19:31;;;;;;;7.47;4.40;;;17.60;99.90;;;;;;5064692;28;20033;-80
2021/03/31 09:22:04;;;;;;;10.65;5.15;;;17.70;99.90;;;;;;5065761;28;20029;-80
2021/03/31 09:24:31;;;;;;;8.57;4.60;;;17.80;99.90;;;;;;5064247;28;20048;-80
2021/03/31 09:27:08;;;;;;;10.57;5.72;;;17.90;99.90;;;;;;5065899;28;20087;-80
2021/03/31 09:29:35;;;;;;;13.32;5.68;;;18.10;99.90;;;;;;5065937;28;20033;-80
2021/03/31 09:32:03;;;;;;;12.40;5.75;;;18.20;99.90;;;;;;5047735;28;20036;-80
2021/03/31 09:34:28;;;;;;;10.85;6.15;;;18.20;99.90;;;;;;5064473;28;20044;-80
2021/03/31 09:36:59;;;;;;;7.57;3.60;;;18.40;99.90;;;;;;5064244;28;20079;-80
2021/03/31 09:39:43;;;;;;;7.95;5.07;;;18.50;99.90;;;;;;5064255;28;20033;-80
2021/03/31 09:42:19;;;;;;;8.63;5.20;;;18.70;99.90;;;;;;5047722;28;20039;-80
2021/03/31 09:44:45;;;;;;;9.88;5.70;;;18.70;99.90;;;;;;5047517;28;20040;-80
2021/03/31 09:47:12;;;;;;;12.18;5.55;;;18.60;99.90;;;;;;5064787;28;20095;-80
2021/03/31 09:49:42;;;;;;;12.38;5.35;;;18.90;99.90;;;;;;5064180;28;20033;-80
2021/03/31 09:52:07;;;;;;;9.52;4.82;;;18.90;99.90;;;;;;5065337;28;20497;-81
2021/03/31 09:54:33;;;;;;;7.63;4.60;;;19.10;99.90;;;;;;5063870;28;20036;-80
2021/03/31 09:56:59;;;;;;;6.60;4.38;;;19.20;99.90;;;;;;5080692;28;20032;-80
2021/03/31 09:59:25;;;;;;;8.50;5.00;;;19.30;99.90;;;;;;5080818;28;20017;-80
2021/03/31 10:01:51;;;;;;;9.68;5.45;;;19.40;99.90;;;;;;5063788;28;20067;-80
2021/03/31 10:04:17;;;;;;;10.02;6.18;;;19.50;98.70;;;;;;5080265;28;20082;-81
2021/03/31 10:06:43;;;;;;;10.68;6.03;;;19.50;99.70;;;;;;5047069;28;20032;-80
2021/03/31 10:09:17;;;;;;;15.95;8.05;;;19.70;99.90;;;;;;5047261;28;20051;-81
2021/03/31 10:11:43;;;;;;;19.55;10.05;;;19.80;96.90;;;;;;5063866;28;20113;-81
2021/03/31 10:14:20;;;;;;;20.05;10.75;;;20.00;98.20;;;;;;5046911;28;20047;-81
2021/03/31 10:16:47;;;;;;;18.40;10.48;;;20.00;96.20;;;;;;5063989;28;20059;-81
2021/03/31 10:19:14;;;;;;;16.55;9.68;;;20.10;97.00;;;;;;5047188;28;20407;-81
2021/03/31 10:21:41;;;;;;;17.90;9.80;;;20.20;95.60;;;;;;5065054;28;20112;-81
2021/03/31 10:24:07;;;;;;;14.82;8.10;;;20.20;96.70;;;;;;5063506;28;20051;-81
2021/03/31 10:26:38;;;;;;;17.05;9.45;;;20.30;95.80;;;;;;5063937;28;20033;-81
2021/03/31 10:29:18;;;;;;;14.40;7.90;;;20.50;95.40;;;;;;5047090;28;20036;-81
2021/03/31 10:31:45;;;;;;;16.58;8.45;;;20.70;95.80;;;;;;5063948;28;20036;-81
2021/03/31 10:34:13;;;;;;;18.85;8.98;;;20.90;96.10;;;;;;5046813;28;20039;-82
2021/03/31 10:36:58;;;;;;;16.27;9.07;;;20.90;93.70;;;;;;5046837;28;20033;-81
2021/03/31 10:50:26;;;;;;;10.60;5.72;;;21.50;92.80;;;;;;5063389;28;20032;-81
2021/03/31 10:52:54;;;;;;;13.35;6.97;;;21.70;92.10;;;;;;5080157;28;20036;-81
2021/03/31 10:55:20;;;;;;;13.52;7.07;;;21.70;90.80;;;;;;5080182;28;20103;-81
2021/03/31 10:57:46;;;;;;;17.73;9.48;;;21.70;90.40;;;;;;5080175;28;20496;-81
2021/03/31 11:00:12;;;;;;;21.85;9.32;;;21.60;90.60;;;;;;5063573;28;20033;-82
2021/03/31 11:02:38;;;;;;;19.83;11.48;;;21.90;90.70;;;;;;5080162;28;20029;-81
2021/03/31 11:05:04;;;;;;;18.88;9.50;;;22.10;90.20;;;;;;5062942;28;20067;-81
2021/03/31 11:07:30;;;;;;;19.38;10.52;;;21.90;91.10;;;;;;5063262;28;20053;-81
2021/03/31 11:09:55;;;;;;;17.17;8.73;;;22.10;90.00;;;;;;5046263;28;20091;-81
2021/03/31 11:12:21;;;;;;;12.50;7.38;;;22.30;89.90;;;;;;5063792;28;20048;-81
2021/03/31 11:14:47;;;;;;;14.35;8.68;;;22.30;88.00;;;;;;5045767;28;20032;-81
2021/03/31 11:19:50;;;;;;;11.98;7.88;;;22.40;91.80;;;;;;5063155;28;20037;-81
2021/03/31 11:27:44;;;;;;;7.47;4.75;;;22.50;91.10;;;;;;5068163;28;20021;-81
2021/03/31 11:30:11;;;;;;;14.63;5.95;;;22.90;90.20;;;;;;5067075;28;20531;-81
2021/03/31 11:32:37;;;;;;;7.28;4.35;;;22.40;87.80;;;;;;5066849;28;20029;-81
2021/03/31 11:35:04;;;;;;;7.75;3.63;;;22.70;90.60;;;;;;5049625;28;20176;-80
2021/03/31 11:37:30;;;;;;;6.20;3.90;;;22.70;88.30;;;;;;5050007;28;20064;-81
2021/03/31 11:39:56;;;;;;;6.53;3.75;;;22.90;89.90;;;;;;5050083;28;20033;-81
2021/03/31 11:42:22;;;;;;;9.25;3.40;;;22.90;90.90;;;;;;5067875;28;20045;-81
2021/03/31 11:44:47;;;;;;;8.77;4.50;;;23.00;90.90;;;;;;5049587;28;20037;-81
2021/03/31 11:47:14;;;;;;;9.18;4.10;;;22.90;89.30;;;;;;5049569;28;20055;-81
2021/03/31 11:49:40;;;;;;;9.05;4.55;;;23.20;90.00;;;;;;5049790;28;20029;-81
2021/03/31 11:52:06;;;;;;;6.25;4.07;;;23.00;88.60;;;;;;5049783;28;20431;-81
2021/03/31 11:54:31;;;;;;;9.18;4.95;;;22.90;87.20;;;;;;5082734;28;20055;-80
2021/03/31 11:56:58;;;;;;;9.40;5.60;;;23.20;88.60;;;;;;5067581;28;20025;-81
2021/03/31 11:59:23;;;;;;;8.60;5.18;;;23.00;84.70;;;;;;5067428;28;20050;-81
2021/03/31 12:01:49;;;;;;;8.48;4.60;;;23.20;85.60;;;;;;5067636;28;20037;-81
2021/03/31 12:04:15;;;;;;;6.38;4.20;;;23.10;87.30;;;;;;5067248;28;20153;-81
2021/03/31 12:06:42;;;;;;;10.50;5.18;;;23.10;90.30;;;;;;5067460;28;20029;-81
2021/03/31 12:09:09;;;;;;;8.73;6.15;;;23.40;88.00;;;;;;5049501;28;20052;-81
2021/03/31 12:11:35;;;;;;;11.30;5.05;;;23.50;89.80;;;;;;5067358;28;20536;-81
2021/03/31 12:14:01;;;;;;;10.15;4.50;;;23.70;90.00;;;;;;5049381;28;20056;-81
2021/03/31 12:16:26;;;;;;;8.65;4.60;;;24.00;87.70;;;;;;5066178;28;20025;-81
2021/03/31 12:18:52;;;;;;;7.22;3.95;;;23.80;87.60;;;;;;5049378;28;20091;-81
2021/03/31 12:21:18;;;;;;;8.93;5.13;;;23.80;87.00;;;;;;5067376;28;20036;-81
2021/03/31 12:23:44;;;;;;;6.70;3.47;;;23.80;87.00;;;;;;5049027;28;20064;-81
2021/03/31 12:26:10;;;;;;;7.72;3.97;;;23.80;85.60;;;;;;5049219;28;20041;-81
2021/03/31 12:28:36;;;;;;;7.32;3.50;;;24.00;90.00;;;;;;5065824;28;20101;-81
2021/03/31 12:31:07;;;;;;;7.55;4.30;;;24.30;83.80;;;;;;5065662;28;20037;-81
2021/03/31 12:33:33;;;;;;;8.25;4.60;;;24.00;83.90;;;;;;5048954;28;20033;-81
2021/03/31 12:35:59;;;;;;;8.55;5.28;;;23.90;84.20;;;;;;5048758;28;20037;-81
2021/03/31 12:38:25;;;;;;;8.25;6.45;;;24.00;83.30;;;;;;5065695;28;20032;-81
2021/03/31 12:40:50;;;;;;;12.15;5.93;;;23.90;85.90;;;;;;5065558;28;20029;-80
2021/03/31 12:43:16;;;;;;;10.23;6.18;;;24.10;86.10;;;;;;5065307;28;20036;-81
2021/03/31 12:45:42;;;;;;;7.93;5.35;;;24.10;84.80;;;;;;5065273;28;20051;-81
2021/03/31 12:48:08;;;;;;;10.68;6.20;;;24.30;83.80;;;;;;5048716;28;20073;-81
2021/03/31 12:50:35;;;;;;;7.68;4.85;;;24.50;81.80;;;;;;5065289;28;20060;-81
2021/03/31 12:53:05;;;;;;;9.05;5.65;;;24.40;84.10;;;;;;5065383;28;20029;-81
2021/03/31 12:55:34;;;;;;;7.55;4.95;;;24.50;82.30;;;;;;5081915;28;20029;-82
2021/03/31 12:58:06;;;;;;;11.38;7.45;;;24.30;79.40;;;;;;5081820;28;20041;-81
2021/03/31 13:00:31;;;;;;;8.57;5.60;;;24.20;77.60;;;;;;5081921;28;20079;-81
2021/03/31 13:02:57;;;;;;;13.63;8.32;;;24.30;77.00;;;;;;5081987;28;20033;-81
2021/03/31 13:05:43;;;;;;;13.27;7.63;;;24.30;74.70;;;;;;5081256;28;20049;-80
2021/03/31 13:08:11;;;;;;;13.05;6.25;;;24.40;76.50;;;;;;5007761;28;20076;-81
2021/03/31 13:10:38;;;;;;;9.25;5.55;;;24.30;73.10;;;;;;5007381;28;20107;-81
2021/03/31 13:13:13;;;;;;;11.45;6.60;;;24.30;76.50;;;;;;5007392;28;20044;-81
2021/03/31 13:15:58;;;;;;;15.23;9.30;;;24.40;71.60;;;;;;5007548;28;20042;-81